createdAt,value
2016-04-18T04:40:20.360Z,6.19
2016-04-18T04:41:20.660Z,6.3
2016-04-18T04:42:20.693Z,6.21
2016-04-18T04:43:20.884Z,6.18
2016-04-18T04:44:20.792Z,6.28
2016-04-18T04:45:20.779Z,6.21
2016-04-18T04:46:20.344Z,6.31
2016-04-18T04:47:21.064Z,6.34
2016-04-18T04:48:21.021Z,6.31
2016-04-18T04:49:21.445Z,6.36
2016-04-18T04:50:20.870Z,6.37
2016-04-18T04:51:35.201Z,6.3
2016-04-18T04:52:20.297Z,6.36
2016-04-18T04:53:21.269Z,6.41
2016-04-18T04:54:21.428Z,6.38
2016-04-18T04:55:20.852Z,6.4
2016-04-18T04:56:21.074Z,6.38
2016-04-18T04:57:21.202Z,6.41
2016-04-18T04:58:21.251Z,6.44
2016-04-18T04:59:20.832Z,6.49
2016-04-18T05:00:20.913Z,6.59
2016-04-18T05:01:21.102Z,6.54
2016-04-18T05:02:20.871Z,6.54
2016-04-18T05:04:20.860Z,6.67
2016-04-18T05:06:21.070Z,6.69
2016-04-18T05:07:21.432Z,6.67
2016-04-18T05:08:20.590Z,6.7
2016-04-18T05:09:20.749Z,6.67
2016-04-18T05:10:20.783Z,6.73
2016-04-18T05:11:20.801Z,6.74
2016-04-18T05:12:21.101Z,6.7
2016-04-18T05:13:20.978Z,6.73
2016-04-18T05:14:20.903Z,6.73
2016-04-18T05:15:20.890Z,6.71
2016-04-18T05:16:20.987Z,6.73
2016-04-18T05:17:21.020Z,6.77
2016-04-18T05:18:20.898Z,6.7
2016-04-18T05:19:21.244Z,6.71
2016-04-18T05:20:20.857Z,6.7
2016-04-18T05:21:21.156Z,6.73
2016-04-18T05:22:21.066Z,6.76
2016-04-18T05:23:20.880Z,6.8
2016-04-18T05:24:20.508Z,6.79
2016-04-18T05:25:20.996Z,6.74
2016-04-18T05:26:20.888Z,6.81
2016-04-18T05:27:21.157Z,6.8
2016-04-18T05:28:21.034Z,6.76
2016-04-18T05:29:21.912Z,6.81
2016-04-18T05:31:20.674Z,6.88
2016-04-18T05:32:20.677Z,6.88
2016-04-18T05:33:20.882Z,6.94
2016-04-18T05:34:20.900Z,6.98
2016-04-18T05:35:20.809Z,7.02
2016-04-18T05:36:20.905Z,7.03
2016-04-18T05:37:34.987Z,7.15
2016-04-18T05:38:20.849Z,7.15
2016-04-18T05:39:20.789Z,7.17
2016-04-18T05:41:20.701Z,7.3
2016-04-18T05:42:21.109Z,7.34
2016-04-18T05:43:20.674Z,7.42
2016-04-18T05:44:20.692Z,7.45
2016-04-18T05:45:21.117Z,7.53
2016-04-18T05:46:20.698Z,7.57
2016-04-18T05:47:34.841Z,7.6
2016-04-18T05:48:20.985Z,7.58
2016-04-18T05:49:20.690Z,7.63
2016-04-18T05:50:20.693Z,7.64
2016-04-18T05:51:20.695Z,7.77
2016-04-18T05:52:20.714Z,7.74
2016-04-18T05:53:20.717Z,7.83
2016-04-18T05:54:20.220Z,7.8
2016-04-18T05:56:20.757Z,7.79
2016-04-18T05:57:35.025Z,7.83
2016-04-18T05:58:20.465Z,7.98
2016-04-18T05:59:20.733Z,7.8
2016-04-18T06:00:20.720Z,7.82
2016-04-18T06:01:20.926Z,7.97
2016-04-18T06:02:20.725Z,7.83
2016-04-18T06:03:20.182Z,7.86
2016-04-18T06:04:20.731Z,7.85
2016-04-18T06:05:20.281Z,7.82
2016-04-18T06:06:20.768Z,7.82
2016-04-18T06:07:20.739Z,7.89
2016-04-18T06:08:20.726Z,7.9
2016-04-18T06:09:20.744Z,7.75
2016-04-18T06:10:20.762Z,7.83
2016-04-18T06:11:20.734Z,7.87
2016-04-18T06:12:20.721Z,7.79
2016-04-18T06:13:20.740Z,7.86
2016-04-18T06:14:20.977Z,7.83
2016-04-18T06:15:20.479Z,7.8
2016-04-18T06:16:20.748Z,7.83
2016-04-18T06:17:20.734Z,7.82
2016-04-18T06:18:20.957Z,7.86
2016-04-18T06:19:20.740Z,7.92
2016-04-18T06:20:20.774Z,7.89
2016-04-18T06:21:20.745Z,7.8
2016-04-18T06:22:21.154Z,7.89
2016-04-18T06:23:21.156Z,7.87
2016-04-18T06:24:20.800Z,7.92
2016-04-18T06:25:20.959Z,7.83
2016-04-18T06:26:20.759Z,7.86
2016-04-18T06:27:21.215Z,7.79
2016-04-18T06:28:20.780Z,7.87
2016-04-18T06:29:20.767Z,7.95
2016-04-18T06:30:20.755Z,7.83
2016-04-18T06:31:20.772Z,7.97
2016-04-18T06:32:20.994Z,7.93
2016-04-18T06:33:20.808Z,8.02
2016-04-18T06:34:20.781Z,7.87
2016-04-18T06:35:21.174Z,7.89
2016-04-18T06:36:20.958Z,7.92
2016-04-18T06:37:20.461Z,8.04
2016-04-18T06:38:20.807Z,7.97
2016-04-18T06:41:20.768Z,8.15
2016-04-18T06:42:20.802Z,8.11
2016-04-18T06:43:21.383Z,8.12
2016-04-18T06:44:20.917Z,8.12
2016-04-18T06:45:21.185Z,8.2
2016-04-18T06:46:20.781Z,8.25
2016-04-18T06:47:20.784Z,8.3
2016-04-18T06:48:20.787Z,8.2
2016-04-18T06:49:20.790Z,8.28
2016-04-18T06:50:20.793Z,8.34
2016-04-18T06:51:20.795Z,8.43
2016-04-18T06:52:20.845Z,8.44
2016-04-18T06:53:20.784Z,8.38
2016-04-18T06:54:20.819Z,8.41
2016-04-18T06:55:21.009Z,8.52
2016-04-18T06:56:21.012Z,8.48
2016-04-18T06:57:20.811Z,8.52
2016-04-18T06:58:21.017Z,8.59
2016-04-18T06:59:21.410Z,8.66
2016-04-18T07:00:20.835Z,8.68
2016-04-18T07:01:20.821Z,8.71
2016-04-18T07:02:21.011Z,8.68
2016-04-18T07:03:35.311Z,8.76
2016-04-18T07:04:35.141Z,8.81
2016-04-18T07:05:21.082Z,8.76
2016-04-18T07:06:20.835Z,8.76
2016-04-18T07:08:20.857Z,8.98
2016-04-18T07:09:21.266Z,9.02
2016-04-18T07:10:34.940Z,8.99
2016-04-18T07:11:35.318Z,8.96
2016-04-18T07:12:20.835Z,8.98
2016-04-18T07:14:20.840Z,9.13
2016-04-18T07:15:20.860Z,9.1
2016-04-18T07:16:20.846Z,9.13
2016-04-18T07:17:21.084Z,9.1
2016-04-18T07:18:20.851Z,9.18
2016-04-18T07:19:20.886Z,9.18
2016-04-18T07:20:21.497Z,9.18
2016-04-18T07:22:20.853Z,9.23
2016-04-18T07:23:34.950Z,9.23
2016-04-18T07:24:21.281Z,9.17
2016-04-18T07:25:20.862Z,9.32
2016-04-18T07:26:20.864Z,9.26
2016-04-18T07:27:20.914Z,9.28
2016-04-18T07:28:21.089Z,9.28
2016-04-18T07:29:20.419Z,9.4
2016-04-18T07:30:20.922Z,9.28
2016-04-18T07:31:20.894Z,9.36
2016-04-18T07:32:20.896Z,9.46
2016-04-18T07:33:21.165Z,9.4
2016-04-18T07:34:20.965Z,9.4
2016-04-18T07:35:20.888Z,9.26
2016-04-18T07:36:21.110Z,9.35
2016-04-18T07:37:20.940Z,9.35
2016-04-18T07:38:20.943Z,9.36
2016-04-18T07:39:20.946Z,9.35
2016-04-18T07:40:21.214Z,9.36
2016-04-18T07:41:21.154Z,9.43
2016-04-18T07:42:20.923Z,9.39
2016-04-18T07:43:20.925Z,9.51
2016-04-18T07:45:20.759Z,9.42
2016-04-18T07:46:20.933Z,9.5
2016-04-18T07:47:21.170Z,9.54
2016-04-18T07:48:21.783Z,9.47
2016-04-18T07:49:20.942Z,9.6
2016-04-18T07:50:35.101Z,9.61
2016-04-18T07:51:20.682Z,9.66
2016-04-18T07:52:20.981Z,9.68
2016-04-18T07:53:20.984Z,9.64
2016-04-18T07:54:20.939Z,9.72
2016-04-18T07:55:21.083Z,9.75
2016-04-18T07:56:20.960Z,9.75
2016-04-18T07:57:20.963Z,9.76
2016-04-18T07:58:21.185Z,9.81
2016-04-18T07:59:21.188Z,9.83
2016-04-18T08:00:20.971Z,9.89
2016-04-18T08:01:21.021Z,9.87
2016-04-18T08:02:20.976Z,9.86
2016-04-18T08:03:21.246Z,9.9
2016-04-18T08:04:20.966Z,9.93
2016-04-18T08:05:21.407Z,9.91
2016-04-18T08:06:21.190Z,9.96
2016-04-18T08:08:21.212Z,10.08
2016-04-18T08:09:20.996Z,10.11
2016-04-18T08:10:21.404Z,10.14
2016-04-18T08:11:21.001Z,10.12
2016-04-18T08:12:21.003Z,10.15
2016-04-18T08:13:21.022Z,10.17
2016-04-18T08:14:21.009Z,10.14
2016-04-18T08:15:35.339Z,10.23
2016-04-18T08:16:21.248Z,10.17
2016-04-18T08:17:21.251Z,10.17
2016-04-18T08:18:33.770Z,10.15
2016-04-18T08:19:20.538Z,10.2
2016-04-18T08:20:21.026Z,10.18
2016-04-18T08:21:35.356Z,10.18
2016-04-18T08:22:21.078Z,10.17
2016-04-18T08:23:21.034Z,10.25
2016-04-18T08:24:21.256Z,10.2
2016-04-18T08:25:21.008Z,10.2
2016-04-18T08:26:21.041Z,10.2
2016-04-18T08:27:21.278Z,10.11
2016-04-18T08:28:21.249Z,10.09
2016-04-18T08:29:21.080Z,10.12
2016-04-18T08:30:21.708Z,10.04
2016-04-18T08:31:21.258Z,10.01
2016-04-18T08:32:21.136Z,10.01
2016-04-18T08:33:22.108Z,9.94
2016-04-18T08:34:21.079Z,9.96
2016-04-18T08:35:20.815Z,9.93
2016-04-18T08:36:21.319Z,9.9
2016-04-18T08:37:21.087Z,9.93
2016-04-18T08:38:35.215Z,9.9
2016-04-18T08:39:21.546Z,9.93
2016-04-18T08:40:21.267Z,9.94
2016-04-18T08:41:21.363Z,10.01
2016-04-18T08:42:21.115Z,9.99
2016-04-18T08:43:21.353Z,10.07
2016-04-18T08:44:21.387Z,10.17
2016-04-18T08:45:21.359Z,10.09
2016-04-18T08:46:21.126Z,10.25
2016-04-18T08:47:21.129Z,10.23
2016-04-18T08:48:21.163Z,10.26
2016-04-18T08:49:21.166Z,10.33
2016-04-18T08:50:21.325Z,10.42
2016-04-18T08:51:21.343Z,10.41
2016-04-18T08:52:21.143Z,10.44
2016-04-18T08:53:21.145Z,10.53
2016-04-18T08:54:49.336Z,10.63
2016-04-18T08:55:21.620Z,10.68
2016-04-18T08:56:21.169Z,10.73
2016-04-18T08:57:21.187Z,10.74
2016-04-18T08:58:21.190Z,10.91
2016-04-18T08:59:21.193Z,10.82
2016-04-18T09:00:21.382Z,10.82
2016-04-18T09:01:21.480Z,10.88
2016-04-18T09:02:21.732Z,10.91
2016-04-18T09:03:21.407Z,10.91
2016-04-18T09:04:35.502Z,11.03
2016-04-18T09:05:21.225Z,11.03
2016-04-18T09:06:35.508Z,11
2016-04-18T09:07:21.855Z,11.09
2016-04-18T09:08:21.577Z,11.03
2016-04-18T09:09:21.892Z,11.09
2016-04-18T09:10:21.518Z,11.02
2016-04-18T09:11:21.662Z,11.09
2016-04-18T09:12:35.932Z,11.21
2016-04-18T09:13:21.511Z,11.25
2016-04-18T09:14:21.515Z,11.35
2016-04-18T09:15:21.251Z,11.36
2016-04-18T09:16:21.254Z,11.4
2016-04-18T09:17:21.459Z,11.42
2016-04-18T09:18:21.306Z,11.58
2016-04-18T09:19:35.372Z,11.6
2016-04-18T09:20:21.468Z,11.7
2016-04-18T09:21:21.589Z,11.64
2016-04-18T09:22:21.368Z,11.67
2016-04-18T09:23:21.413Z,11.7
2016-04-18T09:24:21.458Z,11.76
2016-04-18T09:25:21.501Z,11.85
2016-04-18T09:26:21.765Z,11.83
2016-04-18T09:27:21.580Z,11.78
2016-04-18T09:28:22.224Z,11.91
2016-04-18T09:29:36.084Z,11.94
2016-04-18T09:30:21.603Z,12.01
2016-04-18T09:31:21.631Z,11.95
2016-04-18T09:32:21.639Z,11.98
2016-04-18T09:33:22.005Z,12.07
2016-04-18T09:34:21.638Z,12.05
2016-04-18T09:35:22.054Z,12.19
2016-04-18T09:36:21.653Z,12.12
2016-04-18T09:37:21.689Z,12.05
2016-04-18T09:38:21.679Z,12.01
2016-04-18T09:40:21.703Z,11.96
2016-04-18T09:41:21.707Z,11.98
2016-04-18T09:42:21.711Z,11.96
2016-04-18T09:43:21.714Z,11.94
2016-04-18T09:44:21.732Z,11.94
2016-04-18T09:45:21.768Z,12.01
2016-04-18T09:46:21.786Z,11.95
2016-04-18T09:47:21.742Z,12.02
2016-04-18T09:48:21.761Z,12.07
2016-04-18T09:49:21.763Z,12.12
2016-04-18T09:50:21.749Z,12.2
2016-04-18T09:51:22.190Z,12.21
2016-04-18T09:52:21.802Z,12.24
2016-04-18T09:53:21.773Z,12.35
2016-04-18T09:54:21.776Z,12.41
2016-04-18T09:55:21.607Z,12.31
2016-04-18T09:56:21.798Z,12.47
2016-04-18T09:57:22.004Z,12.49
2016-04-18T09:58:22.271Z,12.54
2016-04-18T09:59:21.821Z,12.54
2016-04-18T10:00:21.824Z,12.6
2016-04-18T10:01:21.826Z,12.71
2016-04-18T10:02:22.064Z,12.71
2016-04-18T10:03:21.972Z,12.83
2016-04-18T10:04:22.131Z,12.9
2016-04-18T10:05:35.697Z,12.87
2016-04-18T10:06:22.325Z,12.93
2016-04-18T10:07:22.031Z,12.97
2016-04-18T10:08:22.205Z,12.97
2016-04-18T10:09:22.145Z,13.05
2016-04-18T10:10:22.382Z,13.1
2016-04-18T10:11:22.150Z,13.1
2016-04-18T10:12:22.716Z,13.19
2016-04-18T10:13:22.706Z,13.14
2016-04-18T10:14:22.177Z,13.19
2016-04-18T10:15:22.242Z,13.28
2016-04-18T10:16:22.339Z,13.41
2016-04-18T10:17:22.264Z,13.28
2016-04-18T10:18:22.610Z,13.36
2016-04-18T10:19:22.471Z,13.39
2016-04-18T10:20:22.396Z,13.07
2016-04-18T10:21:22.149Z,13.23
2016-04-18T10:22:22.292Z,13.19
2016-04-18T10:23:21.466Z,13.36
2016-04-18T10:24:22.235Z,13.44
2016-04-18T10:25:22.332Z,13.51
2016-04-18T10:26:22.177Z,13.48
2016-04-18T10:27:22.305Z,13.6
2016-04-18T10:28:22.418Z,13.79
2016-04-18T10:29:37.202Z,13.87
2016-04-18T10:30:21.892Z,14.02
2016-04-18T10:31:22.379Z,13.97
2016-04-18T10:32:22.506Z,14.02
2016-04-18T10:33:22.665Z,14.07
2016-04-18T10:34:24.824Z,14.2
2016-04-18T10:35:22.249Z,14.28
2016-04-18T10:36:22.424Z,14.33
2016-04-18T10:37:22.520Z,14.29
2016-04-18T10:38:22.476Z,14.22
2016-04-18T10:39:22.494Z,14.22
2016-04-18T10:40:36.341Z,14.27
2016-04-18T10:41:22.452Z,14.1
2016-04-18T10:42:22.814Z,14.1
2016-04-18T10:43:22.411Z,14.07
2016-04-18T10:44:36.508Z,14.07
2016-04-18T10:45:22.494Z,13.99
2016-04-18T10:46:22.826Z,14.09
2016-04-18T10:47:22.656Z,14.04
2016-04-18T10:48:22.487Z,14.03
2016-04-18T10:49:22.787Z,13.89
2016-04-18T10:50:22.525Z,13.85
2016-04-18T10:51:36.635Z,13.91
2016-04-18T10:52:22.857Z,13.88
2016-04-18T10:53:22.563Z,13.91
2016-04-18T10:54:22.847Z,13.91
2016-04-18T10:57:22.621Z,13.91
2016-04-18T10:58:22.248Z,13.95
2016-04-18T10:59:22.674Z,13.73
2016-04-18T11:00:22.723Z,13.73
2016-04-18T11:01:22.710Z,13.81
2016-04-18T11:03:23.184Z,13.54
2016-04-18T11:04:22.951Z,13.59
2016-04-18T11:05:22.611Z,13.52
2016-04-18T11:06:22.192Z,13.52
2016-04-18T11:07:23.412Z,13.42
2016-04-18T11:08:23.212Z,13.41
2016-04-18T11:10:23.140Z,13.51
2016-04-18T11:11:22.814Z,13.44
2016-04-18T11:12:22.770Z,13.39
2016-04-18T11:14:22.713Z,13.46
2016-04-18T11:15:22.857Z,13.55
2016-04-18T11:17:22.706Z,13.42
2016-04-18T11:18:22.927Z,13.44
2016-04-18T11:19:23.524Z,13.45
2016-04-18T11:20:22.792Z,13.42
2016-04-18T11:21:22.888Z,13.38
2016-04-18T11:22:22.751Z,13.41
2016-04-18T11:23:22.410Z,13.55
2016-04-18T11:24:22.991Z,13.48
2016-04-18T11:25:23.040Z,13.54
2016-04-18T11:26:22.949Z,13.55
2016-04-18T11:27:36.998Z,13.71
2016-04-18T11:28:22.845Z,13.85
2016-04-18T11:29:23.207Z,13.88
2016-04-18T11:30:23.568Z,14.03
2016-04-18T11:31:23.227Z,14.21
2016-04-18T11:32:23.105Z,14.28
2016-04-18T11:33:23.233Z,14.33
2016-04-18T11:35:23.363Z,14.64
2016-04-18T11:36:22.928Z,14.75
2016-04-18T11:37:23.243Z,14.84
2016-04-18T11:38:24.262Z,14.77
2016-04-18T11:39:22.312Z,14.89
2016-04-18T11:40:23.206Z,15.02
2016-04-18T11:41:22.786Z,15.25
2016-04-18T11:42:37.039Z,15.2
2016-04-18T11:43:22.931Z,15.34
2016-04-18T11:44:22.887Z,15.34
2016-04-18T11:45:22.984Z,15.23
2016-04-18T11:46:22.893Z,15.29
2016-04-18T11:47:23.177Z,15.2
2016-04-18T11:48:22.992Z,15.27
2016-04-18T11:49:22.980Z,15.03
2016-04-18T11:50:23.169Z,14.94
2016-04-18T11:51:23.313Z,14.8
2016-04-18T11:52:23.128Z,14.72
2016-04-18T11:53:22.959Z,14.65
2016-04-18T11:54:23.400Z,14.5
2016-04-18T11:55:24.199Z,14.35
2016-04-18T11:56:23.374Z,14.21
2016-04-18T11:57:23.391Z,14.15
2016-04-18T11:58:23.379Z,14.15
2016-04-18T11:59:22.959Z,14.12
2016-04-18T12:00:37.009Z,14.07
2016-04-18T12:02:22.811Z,14.02
2016-04-18T12:03:22.563Z,14.07
2016-04-18T12:04:23.177Z,14.1
2016-04-18T12:05:23.068Z,14.03
2016-04-18T12:06:23.134Z,14
2016-04-18T12:07:23.059Z,14.02
2016-04-18T12:08:23.359Z,14.07
2016-04-18T12:09:22.596Z,14.07
2016-04-18T12:10:23.145Z,14.03
2016-04-18T12:11:23.429Z,14.14
2016-04-18T12:12:23.370Z,14.1
2016-04-18T12:13:23.122Z,14.07
2016-04-18T12:14:23.297Z,14.04
2016-04-18T12:15:23.252Z,14.06
2016-04-18T12:16:23.630Z,14.03
2016-04-18T12:17:23.664Z,14.03
2016-04-18T12:18:23.510Z,14.02
2016-04-18T12:19:23.419Z,14.02
2016-04-18T12:20:23.203Z,14.04
2016-04-18T12:21:23.347Z,14.04
2016-04-18T12:22:23.536Z,14
2016-04-18T12:23:22.884Z,14.04
2016-04-18T12:24:23.666Z,14.04
2016-04-18T12:25:22.872Z,14.03
2016-04-18T12:26:23.517Z,14.02
2016-04-18T12:27:23.660Z,14.1
2016-04-18T12:29:24.072Z,14.04
2016-04-18T12:30:23.308Z,14.02
2016-04-18T12:31:23.108Z,14.1
2016-04-18T12:32:23.486Z,14.07
2016-04-18T12:33:23.473Z,14.15
2016-04-18T12:34:24.179Z,14.1
2016-04-18T12:35:23.619Z,14.15
2016-04-18T12:36:23.574Z,14.22
2016-04-18T12:37:23.827Z,14.21
2016-04-18T12:38:23.033Z,14.32
2016-04-18T12:40:23.351Z,14.36
2016-04-18T12:41:23.307Z,14.33
2016-04-18T12:42:23.450Z,14.46
2016-04-18T12:43:23.578Z,14.47
2016-04-18T12:44:23.784Z,14.4
2016-04-18T12:45:23.333Z,14.54
2016-04-18T12:46:23.383Z,14.55
2016-04-18T12:47:23.214Z,14.57
2016-04-18T12:48:23.201Z,14.58
2016-04-18T12:49:23.219Z,14.64
2016-04-18T12:50:23.472Z,14.68
2016-04-18T12:51:23.256Z,14.64
2016-04-18T12:52:23.227Z,14.65
2016-04-18T12:53:23.245Z,14.7
2016-04-18T12:54:23.247Z,14.62
2016-04-18T12:55:23.266Z,14.64
2016-04-18T12:56:23.472Z,14.65
2016-04-18T12:57:37.380Z,14.7
2016-04-18T12:58:23.306Z,14.68
2016-04-18T12:59:23.496Z,14.77
2016-04-18T13:00:23.498Z,14.68
2016-04-18T13:02:23.722Z,14.7
2016-04-18T13:03:23.350Z,14.78
2016-04-18T13:04:23.353Z,14.7
2016-04-18T13:05:37.465Z,14.7
2016-04-18T13:06:22.873Z,14.77
2016-04-18T13:07:23.565Z,14.68
2016-04-18T13:08:23.379Z,14.72
2016-04-18T13:09:23.398Z,14.8
2016-04-18T13:10:23.401Z,14.84
2016-04-18T13:11:23.497Z,14.81
2016-04-18T13:12:23.406Z,14.81
2016-04-18T13:13:23.424Z,14.99
2016-04-18T13:14:23.442Z,14.99
2016-04-18T13:15:23.648Z,15.09
2016-04-18T13:16:23.464Z,15.11
2016-04-18T13:17:23.762Z,15.21
2016-04-18T13:18:23.484Z,15.2
2016-04-18T13:19:23.487Z,15.21
2016-04-18T13:20:23.489Z,15.29
2016-04-18T13:21:23.492Z,15.32
2016-04-18T13:22:23.917Z,15.29
2016-04-18T13:23:23.544Z,15.46
2016-04-18T13:24:23.703Z,15.44
2016-04-18T13:25:23.300Z,15.56
2016-04-18T13:26:23.741Z,15.59
2016-04-18T13:27:23.774Z,15.69
2016-04-18T13:28:23.574Z,15.72
2016-04-18T13:29:23.592Z,15.87
2016-04-18T13:30:24.002Z,15.78
2016-04-18T13:31:23.613Z,15.83
2016-04-18T13:32:23.646Z,15.93
2016-04-18T13:33:23.618Z,15.93
2016-04-18T13:34:23.652Z,15.92
2016-04-18T13:35:23.671Z,15.97
2016-04-18T13:36:23.657Z,15.92
2016-04-18T13:37:23.660Z,15.93
2016-04-18T13:38:23.866Z,15.92
2016-04-18T13:39:23.713Z,15.96
2016-04-18T13:40:23.715Z,15.84
2016-04-18T13:41:23.718Z,15.86
2016-04-18T13:42:23.720Z,15.8
2016-04-18T13:43:23.724Z,15.69
2016-04-18T13:44:37.835Z,15.57
2016-04-18T13:45:23.760Z,15.68
2016-04-18T13:46:23.747Z,15.72
2016-04-18T13:47:23.765Z,15.83
2016-04-18T13:48:23.784Z,15.9
2016-04-18T13:49:23.990Z,15.83
2016-04-18T13:50:38.086Z,15.86
2016-04-18T13:51:37.917Z,15.87
2016-04-18T13:52:23.842Z,15.9
2016-04-18T13:53:23.828Z,15.94
2016-04-18T13:54:24.066Z,15.92
2016-04-18T13:55:24.052Z,15.93
2016-04-18T13:56:23.977Z,15.84
2016-04-18T13:57:23.870Z,15.82
2016-04-18T13:58:23.889Z,15.74
2016-04-18T13:59:23.954Z,15.71
2016-04-18T14:00:23.910Z,15.75
2016-04-18T14:01:38.037Z,15.78
2016-04-18T14:02:23.962Z,15.8
2016-04-18T14:03:24.183Z,15.83
2016-04-18T14:04:24.171Z,15.89
2016-04-18T14:05:23.985Z,15.94
2016-04-18T14:06:23.974Z,15.92
2016-04-18T14:07:23.976Z,16
2016-04-18T14:08:23.994Z,16
2016-04-18T14:09:24.074Z,16.01
2016-04-18T14:10:38.109Z,15.93
2016-04-18T14:11:24.673Z,15.92
2016-04-18T14:12:23.536Z,16
2016-04-18T14:13:24.023Z,15.93
2016-04-18T14:14:24.057Z,15.93
2016-04-18T14:15:24.059Z,15.89
2016-04-18T14:16:24.281Z,15.92
2016-04-18T14:17:24.080Z,15.94
2016-04-18T14:18:24.099Z,15.87
2016-04-18T14:19:24.101Z,15.89
2016-04-18T14:20:24.135Z,15.92
2016-04-18T14:21:24.107Z,15.94
2016-04-18T14:22:24.125Z,15.9
2016-04-18T14:23:24.144Z,15.92
2016-04-18T14:24:24.349Z,15.9
2016-04-18T14:25:24.164Z,15.9
2016-04-18T14:26:24.417Z,15.9
2016-04-18T14:27:24.186Z,15.93
2016-04-18T14:28:24.392Z,15.8
2016-04-18T14:29:24.378Z,15.94
2016-04-18T14:30:24.224Z,15.83
2016-04-18T14:31:24.431Z,15.8
2016-04-18T14:32:24.230Z,15.8
2016-04-18T14:33:24.233Z,15.92
2016-04-18T14:34:24.252Z,15.84
2016-04-18T14:35:24.255Z,15.89
2016-04-18T14:36:24.257Z,15.83
2016-04-18T14:37:24.275Z,15.83
2016-04-18T14:38:38.402Z,15.89
2016-04-18T14:39:24.312Z,15.9
2016-04-18T14:40:24.502Z,15.89
2016-04-18T14:41:24.363Z,15.96
2016-04-18T14:42:24.335Z,15.96
2016-04-18T14:43:24.338Z,16.01
2016-04-18T14:44:24.341Z,16.04
2016-04-18T14:45:24.359Z,16.01
2016-04-18T14:46:24.362Z,15.96
2016-04-18T14:47:24.412Z,16.05
2016-04-18T14:48:24.586Z,16.11
2016-04-18T14:49:24.635Z,15.94
2016-04-18T14:50:24.731Z,16
2016-04-18T14:51:24.437Z,16.02
2016-04-18T14:52:24.440Z,15.97
2016-04-18T14:53:24.443Z,15.94
2016-04-18T14:54:24.665Z,16.01
2016-04-18T14:55:24.667Z,16.04
2016-04-18T14:56:24.732Z,16.01
2016-04-18T14:57:24.469Z,15.94
2016-04-18T14:58:24.503Z,15.86
2016-04-18T14:59:24.693Z,15.75
2016-04-18T15:00:24.524Z,15.68
2016-04-18T15:01:24.511Z,15.57
2016-04-18T15:02:24.561Z,15.67
2016-04-18T15:03:24.532Z,15.59
2016-04-18T15:04:24.550Z,15.59
2016-04-18T15:05:24.585Z,15.65
2016-04-18T15:06:24.571Z,15.59
2016-04-18T15:07:38.668Z,15.72
2016-04-18T15:08:24.608Z,15.74
2016-04-18T15:09:24.830Z,15.72
2016-04-18T15:10:24.613Z,15.68
2016-04-18T15:11:24.616Z,15.68
2016-04-18T15:12:24.618Z,15.74
2016-04-18T15:13:24.622Z,15.74
2016-04-18T15:14:24.890Z,15.72
2016-04-18T15:15:38.768Z,15.75
2016-04-18T15:16:38.754Z,15.74
2016-04-18T15:17:24.726Z,15.71
2016-04-18T15:18:24.698Z,15.67
2016-04-18T15:19:24.716Z,15.64
2016-04-18T15:20:24.704Z,15.57
2016-04-18T15:21:24.550Z,15.5
2016-04-18T15:22:24.710Z,15.43
2016-04-18T15:26:25.314Z,15.47
2016-04-18T15:27:11.145Z,15.47
2016-04-18T15:28:11.382Z,15.44
2016-04-18T15:29:11.198Z,15.41
2016-04-18T15:30:11.184Z,15.46
2016-04-18T15:31:11.203Z,15.41
2016-04-18T15:32:11.222Z,15.41
2016-04-18T15:33:11.208Z,15.36
2016-04-18T15:34:11.227Z,15.29
2016-04-18T15:35:11.229Z,15.35
2016-04-18T15:36:11.263Z,15.27
2016-04-18T15:37:11.266Z,15.34
2016-04-18T15:38:11.253Z,15.29
2016-04-18T15:39:11.271Z,15.34
2016-04-18T15:40:11.274Z,15.27
2016-04-18T15:41:11.277Z,15.25
2016-04-18T15:42:11.498Z,15.31
2016-04-18T15:43:11.314Z,15.23
2016-04-18T15:44:11.348Z,15.25
2016-04-18T15:45:11.319Z,15.21
2016-04-18T15:46:11.323Z,15.14
2016-04-18T15:47:11.606Z,15.19
2016-04-18T15:48:11.387Z,15.16
2016-04-18T15:49:11.390Z,15.17
2016-04-18T15:50:11.377Z,14.94
2016-04-18T15:51:11.583Z,14.94
2016-04-18T15:52:11.398Z,14.92
2016-04-18T15:53:11.463Z,14.84
2016-04-18T15:54:25.531Z,14.73
2016-04-18T15:55:25.517Z,14.69
2016-04-18T15:56:11.424Z,14.69
2016-04-18T15:57:11.443Z,14.64
2016-04-18T15:58:11.695Z,14.62
2016-04-18T15:59:11.464Z,14.65
2016-04-18T16:00:11.467Z,14.6
2016-04-18T16:01:11.297Z,14.6
2016-04-18T16:02:11.738Z,14.57
2016-04-18T16:03:11.491Z,14.51
2016-04-18T16:04:11.493Z,14.46
2016-04-18T16:05:11.511Z,14.55
2016-04-18T16:06:11.545Z,14.46
2016-04-18T16:07:11.516Z,14.47
2016-04-18T16:08:11.518Z,14.55
2016-04-18T16:09:11.554Z,14.52
2016-04-18T16:10:11.375Z,14.54
2016-04-18T16:11:11.759Z,14.42
2016-04-18T16:12:11.595Z,14.37
2016-04-18T16:13:11.566Z,14.33
2016-04-18T16:14:11.444Z,14.4
2016-04-18T16:15:11.619Z,14.4
2016-04-18T16:16:11.591Z,14.27
2016-04-18T16:17:11.593Z,14.22
2016-04-18T16:18:11.611Z,14.28
2016-04-18T16:19:11.599Z,14.15
2016-04-18T16:20:11.632Z,14.15
2016-04-18T16:21:11.619Z,14.09
2016-04-18T16:22:11.669Z,14.02
2016-04-18T16:23:11.640Z,14.03
2016-04-18T16:24:11.642Z,14.04
2016-04-18T16:25:11.865Z,14.03
2016-04-18T16:26:11.695Z,14.06
2016-04-18T16:27:12.150Z,14.03
2016-04-18T16:28:11.764Z,14.02
2016-04-18T16:29:11.891Z,13.89
2016-04-18T16:30:11.908Z,14.03
2016-04-18T16:31:11.864Z,13.99
2016-04-18T16:32:11.727Z,14
2016-04-18T16:33:11.714Z,13.87
2016-04-18T16:34:11.717Z,13.84
2016-04-18T16:35:11.735Z,13.92
2016-04-18T16:36:11.738Z,13.99
2016-04-18T16:37:11.771Z,13.88
2016-04-18T16:38:11.744Z,13.88
2016-04-18T16:39:11.777Z,13.91
2016-04-18T16:40:12.076Z,13.84
2016-04-18T16:41:11.783Z,13.84
2016-04-18T16:42:11.910Z,13.77
2016-04-18T16:43:12.022Z,13.71
2016-04-18T16:44:12.104Z,13.75
2016-04-18T16:45:11.824Z,13.59
2016-04-18T16:46:12.030Z,13.57
2016-04-18T16:47:12.048Z,13.55
2016-04-18T16:48:12.228Z,13.44
2016-04-18T16:49:11.856Z,13.41
2016-04-18T16:50:12.280Z,13.41
2016-04-18T16:51:11.862Z,13.39
2016-04-18T16:52:11.879Z,13.3
2016-04-18T16:53:11.867Z,13.33
2016-04-18T16:54:11.885Z,13.32
2016-04-18T16:55:12.091Z,13.11
2016-04-18T16:56:11.906Z,13.07
2016-04-18T16:57:11.892Z,13.07
2016-04-18T16:58:11.895Z,13.04
2016-04-18T16:59:11.898Z,12.97
2016-04-18T17:00:11.900Z,12.92
2016-04-18T17:01:11.920Z,12.85
2016-04-18T17:02:12.953Z,12.92
2016-04-18T17:03:12.144Z,12.85
2016-04-18T17:04:12.161Z,12.87
2016-04-18T17:05:12.164Z,12.75
2016-04-18T17:06:11.948Z,12.72
2016-04-18T17:07:11.951Z,12.71
2016-04-18T17:08:12.157Z,12.56
2016-04-18T17:09:11.971Z,12.6
2016-04-18T17:10:11.975Z,12.6
2016-04-18T17:11:11.837Z,12.57
2016-04-18T17:12:12.199Z,12.52
2016-04-18T17:13:11.982Z,12.53
2016-04-18T17:14:12.001Z,12.46
2016-04-18T17:15:12.004Z,12.46
2016-04-18T17:16:12.679Z,12.41
2016-04-18T17:17:12.040Z,12.34
2016-04-18T17:18:12.012Z,12.34
2016-04-18T17:19:12.248Z,12.28
2016-04-18T17:20:12.626Z,12.21
2016-04-18T17:21:12.036Z,12.21
2016-04-18T17:22:12.038Z,12.17
2016-04-18T17:23:12.245Z,12.12
2016-04-18T17:25:12.250Z,11.99
2016-04-18T17:26:12.049Z,11.91
2016-04-18T17:27:12.083Z,11.95
2016-04-18T17:28:12.070Z,11.91
2016-04-18T17:29:12.276Z,11.95
2016-04-18T17:30:12.091Z,11.79
2016-04-18T17:31:12.078Z,11.82
2016-04-18T17:32:12.128Z,11.79
2016-04-18T17:33:12.099Z,11.78
2016-04-18T17:34:12.102Z,11.7
2016-04-18T17:35:11.963Z,11.7
2016-04-18T17:36:12.107Z,11.7
2016-04-18T17:37:11.641Z,11.64
2016-04-18T17:38:26.880Z,11.6
2016-04-18T17:39:12.115Z,11.64
2016-04-18T17:40:11.665Z,11.54
2016-04-18T17:41:12.136Z,11.57
2016-04-18T17:42:12.123Z,11.55
2016-04-18T17:43:12.126Z,11.58
2016-04-18T17:44:12.144Z,11.49
2016-04-18T17:45:12.179Z,11.46
2016-04-18T17:46:12.150Z,11.46
2016-04-18T17:47:12.356Z,11.33
2016-04-18T17:48:12.171Z,11.33
2016-04-18T17:49:12.189Z,11.35
2016-04-18T17:50:12.176Z,11.32
2016-04-18T17:51:12.195Z,11.27
2016-04-18T17:52:12.806Z,11.21
2016-04-18T17:53:12.168Z,11.17
2016-04-18T17:54:12.186Z,11.14
2016-04-18T17:56:12.176Z,11.14
2016-04-18T17:57:12.211Z,11.06
2016-04-18T17:58:12.401Z,11.06
2016-04-18T17:59:12.201Z,11.06
2016-04-18T18:00:16.315Z,11.03
2016-04-18T18:01:12.409Z,11
2016-04-18T18:02:13.489Z,11.04
2016-04-18T18:03:12.210Z,10.92
2016-04-18T18:04:12.229Z,10.92
2016-04-18T18:05:26.328Z,10.85
2016-04-18T18:06:12.235Z,10.86
2016-04-18T18:07:12.425Z,10.84
2016-04-18T18:08:12.241Z,10.85
2016-04-18T18:09:12.258Z,10.74
2016-04-18T18:10:12.246Z,10.76
2016-04-18T18:11:12.451Z,10.73